Armbrust, PA

10:13 AM EDT on March 30, 2015 (GMT -0400)
Midway St. Clair | | Change Station
CLOSE
Current Station
Personal Weather Station
Location: Greensburg, PA
Elevation: 1135 ft
Nearby Weather Stations

Elev 1135 ft 40.27 °N, 79.56 °W | Updated 1 second ago

Overcast
Overcast
43.3 °F
Feels Like 38 °F
N
9.0
Wind Variable Wind from WNW
Gusts 16.0 mph

Today
High -- | Low -- °F
--% Chance of Precip.
Yesterday
High -- | Low -- °F
Precip. -- in
7:05 AM 7:40 PM
Waxing Gibbous, 80% visible
Pressure 29.93 in
Visibility 20.0 miles
Clouds Scattered Clouds 4000 ft
Mostly Cloudy 5000 ft
Windchill 38 °F
Dew Point 30 °F
Humidity 60%
Rainfall 0.00 in
Snow Depth Not available.
UV 2 out of 12
Pollen 6.00 out of 12
Air Quality Not available.
Flu Activity Not available.
METAR KLBE 301350Z 27010G20KT 20SM SCT040 BKN050 06/00 A2993

More Conditions Fewer Conditions

Pressure 29.93 in
Visibility 20.0 miles
Clouds Scattered Clouds 4000 ft
Mostly Cloudy 5000 ft
Windchill 38 °F
Dew Point 30 °F
Humidity 60%
Rainfall 0.00 in
Snow Depth Not available.
UV 2 out of 12
Pollen 6.00 out of 12
Air Quality Not available.
Flu Activity Not available.
METAR KLBE 301350Z 27010G20KT 20SM SCT040 BKN050 06/00 A2993

More Conditions Fewer Conditions

10-Day Weather Forecast

Almanac

Astronomy

Mar. 30, 2015 Rise Set
Actual Time
Civil Twilight
Nautical Twilight
Astronomical Twilight
Moon
Length of Visible Light
Length of Day
Tomorrow will be .
, % of the Moon is Illuminated

Today's Extremes

State Highs State Lows

Community

WunderPhotos

Upload Photos

1,809,502 photos uploaded!

WunderBlogs® & News

Nearby

Air Quality

  Air Quality AQ Index Pollutant
Not available.

Snow Depth

Station Depth Elevation

Earthquake Activity

City Distance Mag. Time & Date
Minimum magnitude displayed is 2.5.

Coastal Water Temperatures

Place Temperature

Stations

Nearby Weather Stations

Station Location Temp. Windchill Dew Point Humidity Wind Precip. Elev Updated Type